VOZ63 WSSS-YPPH
Flight info
| Callsign | VOZ63 |
|---|---|
| Flight time | N/A |
| Altitude | 37000 |
| Route | ANITO7A ANITO B470 PKP L764 LAMOB B469 TOPIR/N0485F380 L514 AVPAL Q38 JULIM |
| Aircraft | B77W/H-SDE1E2E3FGHIJ2J3J4J5M1RWXY/LB1D1 |
Departure
| Time | 2026-05-07 18:30 |
|---|---|
| Airport | Singapore Changi Airport (WSSS) |
Arrival
| Time | N/A |
|---|---|
| Airport | Perth International Airport (YPPH) |
| Time | Latitude | Longitude | Altitude | Speed | Heading |
|---|---|---|---|---|---|
| 2026-05-07 18:30 | 1.47166 | 104.05040 | 5031 ft | 277 kts | 56° |
| 2026-05-07 18:30 | 1.47871 | 104.06836 | 5832 ft | 277 kts | 85° |
| 2026-05-07 18:31 | 1.47689 | 104.08741 | 6601 ft | 279 kts | 108° |
| 2026-05-07 18:31 | 1.46928 | 104.10524 | 7261 ft | 281 kts | 115° |
| 2026-05-07 18:31 | 1.46081 | 104.12302 | 7998 ft | 284 kts | 115° |
| 2026-05-07 18:31 | 1.45240 | 104.14076 | 8681 ft | 284 kts | 115° |
| 2026-05-07 18:32 | 1.44680 | 104.15266 | 8937 ft | 287 kts | 115° |
| 2026-05-07 18:32 | 1.43823 | 104.17096 | 8963 ft | 294 kts | 115° |
| 2026-05-07 18:32 | 1.42404 | 104.20146 | 8955 ft | 292 kts | 115° |
| 2026-05-07 18:32 | 1.39075 | 104.27348 | 9007 ft | 286 kts | 115° |
| 2026-05-07 18:33 | 1.32829 | 104.40467 | 8772 ft | 277 kts | 128° |
| 2026-05-07 18:33 | 1.23596 | 104.43368 | 8855 ft | 264 kts | 173° |
| 2026-05-07 18:33 | 1.02174 | 104.48562 | 11461 ft | 352 kts | 163° |
| 2026-05-07 18:33 | 0.88808 | 104.52329 | 15226 ft | 396 kts | 163° |
| 2026-05-07 18:34 | 0.66433 | 104.58551 | 20462 ft | 434 kts | 163° |
| 2026-05-07 18:34 | 0.42434 | 104.65690 | 24588 ft | 465 kts | 162° |
| 2026-05-07 18:34 | 0.08354 | 104.75773 | 28738 ft | 497 kts | 162° |
| 2026-05-07 18:34 | -0.18653 | 104.83828 | 31126 ft | 510 kts | 162° |
| 2026-05-07 18:35 | -0.43368 | 104.96258 | 33425 ft | 500 kts | 140° |
| 2026-05-07 18:35 | -0.58511 | 105.07362 | 35104 ft | 496 kts | 145° |
| 2026-05-07 18:35 | -0.81614 | 105.22708 | 36545 ft | 504 kts | 145° |
| 2026-05-07 18:35 | -1.21231 | 105.49531 | 37063 ft | 517 kts | 144° |
| 2026-05-07 18:36 | -1.68965 | 105.81866 | 36870 ft | 516 kts | 145° |
| 2026-05-07 18:36 | -2.08968 | 106.08955 | 36657 ft | 505 kts | 144° |
| 2026-05-07 18:36 | -2.61304 | 106.25688 | 36686 ft | 490 kts | 165° |
| 2026-05-07 18:36 | -3.13598 | 106.40639 | 36843 ft | 490 kts | 164° |
| 2026-05-07 18:37 | -3.66765 | 106.55106 | 36990 ft | 499 kts | 163° |
| 2026-05-07 18:37 | -4.32783 | 106.73120 | 36829 ft | 503 kts | 163° |
| 2026-05-07 18:38 | -4.85980 | 106.87663 | 36810 ft | 494 kts | 164° |
| 2026-05-07 18:38 | -5.39250 | 107.02140 | 36883 ft | 500 kts | 165° |
| 2026-05-07 18:39 | -5.93405 | 107.16909 | 36872 ft | 503 kts | 165° |
| 2026-05-07 18:39 | -6.20350 | 107.24265 | 36771 ft | 495 kts | 165° |
| 2026-05-07 18:39 | -6.46690 | 107.31465 | 36783 ft | 487 kts | 165° |
| 2026-05-07 18:39 | -6.72904 | 107.38639 | 36945 ft | 489 kts | 165° |
| 2026-05-07 18:40 | -6.99358 | 107.45883 | 37012 ft | 498 kts | 165° |
| 2026-05-07 18:40 | -7.52950 | 107.60592 | 36915 ft | 500 kts | 165° |
| 2026-05-07 18:41 | -8.05741 | 107.75147 | 36817 ft | 484 kts | 167° |
| 2026-05-07 18:41 | -8.31738 | 107.82290 | 36936 ft | 486 kts | 166° |
| 2026-05-07 18:41 | -8.58000 | 107.89743 | 36994 ft | 495 kts | 166° |
| 2026-05-07 18:42 | -9.11539 | 108.05042 | 36827 ft | 498 kts | 166° |
| 2026-05-07 18:42 | -9.63947 | 108.20045 | 36848 ft | 482 kts | 166° |
| 2026-05-07 18:43 | -10.16017 | 108.35015 | 36997 ft | 493 kts | 167° |
| 2026-05-07 18:43 | -10.69183 | 108.50336 | 36851 ft | 493 kts | 167° |
| 2026-05-07 18:44 | -11.20869 | 108.65296 | 36894 ft | 482 kts | 167° |
| 2026-05-07 18:44 | -11.46869 | 108.72838 | 36998 ft | 489 kts | 167° |
| 2026-05-07 18:44 | -11.73400 | 108.80550 | 37018 ft | 500 kts | 167° |
| 2026-05-07 18:44 | -12.00121 | 108.88334 | 36904 ft | 499 kts | 167° |
| 2026-05-07 18:45 | -12.26350 | 108.97436 | 36869 ft | 493 kts | 165° |
| 2026-05-07 18:45 | -12.77509 | 109.15208 | 36959 ft | 485 kts | 166° |
| 2026-05-07 18:46 | -13.29461 | 109.33350 | 37011 ft | 500 kts | 166° |
| 2026-05-07 18:46 | -13.81634 | 109.51657 | 36860 ft | 486 kts | 166° |
| 2026-05-07 18:47 | -14.32779 | 109.69668 | 37024 ft | 490 kts | 166° |
| 2026-05-07 18:47 | -14.58880 | 109.78906 | 37062 ft | 501 kts | 166° |
| 2026-05-07 18:47 | -14.85018 | 109.88177 | 36988 ft | 502 kts | 166° |
| 2026-05-07 18:48 | -15.36982 | 110.06668 | 36889 ft | 485 kts | 167° |
| 2026-05-07 18:48 | -15.88286 | 110.25022 | 37078 ft | 495 kts | 167° |
| 2026-05-07 18:49 | -16.41021 | 110.43998 | 36961 ft | 499 kts | 167° |
| 2026-05-07 18:49 | -16.92564 | 110.62642 | 36954 ft | 484 kts | 167° |
| 2026-05-07 18:50 | -17.44278 | 110.81463 | 37100 ft | 500 kts | 167° |
| 2026-05-07 18:50 | -17.96618 | 111.00634 | 36942 ft | 496 kts | 168° |
| 2026-05-07 18:51 | -18.48339 | 111.19682 | 37028 ft | 489 kts | 168° |
| 2026-05-07 18:51 | -19.00222 | 111.38953 | 37066 ft | 504 kts | 169° |
| 2026-05-07 18:52 | -19.52578 | 111.58522 | 36947 ft | 488 kts | 170° |
| 2026-05-07 18:52 | -20.03724 | 111.77729 | 37103 ft | 492 kts | 171° |
| 2026-05-07 18:53 | -20.55794 | 111.97471 | 37030 ft | 500 kts | 171° |
| 2026-05-07 18:53 | -21.07286 | 112.17122 | 36987 ft | 483 kts | 172° |
| 2026-05-07 18:53 | -21.32671 | 112.26843 | 37117 ft | 486 kts | 172° |
| 2026-05-07 18:54 | -21.58392 | 112.36737 | 37177 ft | 496 kts | 172° |
| 2026-05-07 18:54 | -22.10783 | 112.57043 | 37010 ft | 495 kts | 172° |
| 2026-05-07 18:55 | -22.61971 | 112.77012 | 37091 ft | 489 kts | 172° |
| 2026-05-07 18:55 | -23.14243 | 112.97577 | 37138 ft | 506 kts | 171° |
| 2026-05-07 18:56 | -23.66372 | 113.18267 | 37018 ft | 492 kts | 171° |
| 2026-05-07 18:56 | -23.77509 | 113.22711 | 37082 ft | 489 kts | 171° |
| 2026-05-07 18:57 | -23.83928 | 113.25268 | 37105 ft | 492 kts | 171° |
| 2026-05-07 18:57 | -23.90394 | 113.27848 | 37097 ft | 496 kts | 171° |
| 2026-05-07 18:58 | -23.96898 | 113.30450 | 37102 ft | 498 kts | 171° |
| 2026-05-07 18:58 | -24.03429 | 113.33069 | 37102 ft | 500 kts | 171° |
| 2026-05-07 18:59 | -24.09925 | 113.35675 | 37120 ft | 501 kts | 170° |
| 2026-05-07 18:59 | -24.16470 | 113.38305 | 37107 ft | 501 kts | 170° |
| 2026-05-07 19:00 | -24.23002 | 113.40933 | 37105 ft | 499 kts | 170° |
| 2026-05-07 19:00 | -24.29513 | 113.43557 | 37117 ft | 498 kts | 171° |
| 2026-05-07 19:01 | -24.36018 | 113.46174 | 37151 ft | 497 kts | 170° |
| 2026-05-07 19:01 | -24.42504 | 113.48786 | 37125 ft | 497 kts | 170° |
| 2026-05-07 19:02 | -24.48994 | 113.51408 | 37119 ft | 496 kts | 170° |
| 2026-05-07 19:02 | -24.55469 | 113.54025 | 37117 ft | 495 kts | 170° |
| 2026-05-07 19:03 | -24.61938 | 113.56642 | 37126 ft | 495 kts | 170° |
| 2026-05-07 19:03 | -24.68365 | 113.59245 | 37130 ft | 496 kts | 169° |
| 2026-05-07 19:04 | -24.74838 | 113.61870 | 37122 ft | 496 kts | 169° |
| 2026-05-07 19:04 | -24.81334 | 113.64508 | 37134 ft | 496 kts | 169° |
| 2026-05-07 19:05 | -24.87774 | 113.67355 | 37136 ft | 505 kts | 163° |
| 2026-05-07 19:05 | -24.93875 | 113.71447 | 37147 ft | 519 kts | 154° |
| 2026-05-07 19:06 | -24.99761 | 113.76001 | 37151 ft | 519 kts | 154° |
| 2026-05-07 19:06 | -25.08642 | 113.82837 | 37144 ft | 518 kts | 154° |
| 2026-05-07 19:07 | -25.14571 | 113.87360 | 37153 ft | 518 kts | 154° |
| 2026-05-07 19:07 | -25.20491 | 113.91871 | 37160 ft | 517 kts | 154° |
| 2026-05-07 19:08 | -25.26409 | 113.96389 | 37156 ft | 517 kts | 154° |
| 2026-05-07 19:08 | -25.32323 | 114.00911 | 37163 ft | 516 kts | 154° |
| 2026-05-07 19:09 | -25.38234 | 114.05438 | 37166 ft | 515 kts | 154° |
| 2026-05-07 19:09 | -25.44096 | 114.09934 | 37172 ft | 516 kts | 153° |
| 2026-05-07 19:10 | -25.49994 | 114.14460 | 37168 ft | 515 kts | 153° |
| 2026-05-07 19:10 | -25.55879 | 114.18983 | 37169 ft | 515 kts | 153° |
| 2026-05-07 19:11 | -25.61759 | 114.23507 | 37165 ft | 514 kts | 153° |
| 2026-05-07 19:11 | -25.67635 | 114.28034 | 37180 ft | 514 kts | 153° |
| 2026-05-07 19:12 | -25.73511 | 114.32566 | 37187 ft | 514 kts | 153° |
| 2026-05-07 19:12 | -25.79388 | 114.37104 | 37184 ft | 515 kts | 153° |
| 2026-05-07 19:13 | -25.85266 | 114.41650 | 37187 ft | 515 kts | 153° |
| 2026-05-07 19:13 | -25.91145 | 114.46201 | 37193 ft | 515 kts | 153° |
| 2026-05-07 19:14 | -25.97037 | 114.50769 | 37189 ft | 515 kts | 153° |
| 2026-05-07 19:14 | -26.02878 | 114.55302 | 37195 ft | 515 kts | 153° |
| 2026-05-07 19:15 | -26.08756 | 114.59871 | 37198 ft | 515 kts | 153° |
| 2026-05-07 19:15 | -26.14631 | 114.64442 | 37239 ft | 514 kts | 153° |
| 2026-05-07 19:16 | -26.20472 | 114.68991 | 37213 ft | 514 kts | 153° |
| 2026-05-07 19:16 | -26.26326 | 114.73560 | 37207 ft | 513 kts | 153° |
| 2026-05-07 19:17 | -26.36547 | 114.81546 | 37220 ft | 512 kts | 153° |
| 2026-05-07 19:17 | -26.48188 | 114.90663 | 37223 ft | 510 kts | 152° |
| 2026-05-07 19:18 | -26.57832 | 114.98234 | 37231 ft | 509 kts | 152° |
| 2026-05-07 19:18 | -26.69398 | 115.07334 | 37265 ft | 507 kts | 152° |
| 2026-05-07 19:19 | -26.82815 | 115.17921 | 37248 ft | 506 kts | 152° |
| 2026-05-07 19:19 | -26.92442 | 115.25535 | 37251 ft | 506 kts | 151° |
| 2026-05-07 19:20 | -27.03935 | 115.34648 | 37266 ft | 505 kts | 151° |
| 2026-05-07 19:20 | -27.15316 | 115.43695 | 37286 ft | 504 kts | 150° |
| 2026-05-07 19:21 | -27.26755 | 115.52812 | 37289 ft | 503 kts | 150° |
| 2026-05-07 19:21 | -27.38180 | 115.61849 | 37308 ft | 500 kts | 154° |
| 2026-05-07 19:22 | -27.50408 | 115.68965 | 37289 ft | 493 kts | 159° |
| 2026-05-07 19:22 | -27.62682 | 115.75939 | 37313 ft | 493 kts | 158° |
| 2026-05-07 19:23 | -27.74918 | 115.82990 | 37306 ft | 494 kts | 158° |